Time;durP1;ratioP1;P1;durP2;ratioP2;P2;SDS_P1;SDS_P2;PMS_P1;PMS_P2;Temp;Humidity;BMP_temperature;BMP_pressure;BME280_temperature;BME280_humidity;BME280_pressure;Samples;Min_cycle;Max_cycle;Signal;HPM_P1;HPM_P2
2022/05/15 00:00:57;;;;;;;19.10;6.18;;;;;;;;;;5017842;28;20501;-71
2022/05/15 00:03:24;;;;;;;19.00;5.32;;;;;;;;;;5010297;28;20179;-71
2022/05/15 00:05:53;;;;;;;20.57;6.23;;;;;;;;;;5014103;28;20185;-72
2022/05/15 00:08:19;;;;;;;21.70;5.32;;;;;;;;;;5016023;28;20688;-72
2022/05/15 00:10:44;;;;;;;17.03;5.60;;;;;;;;;;5011255;28;20191;-72
2022/05/15 00:13:10;;;;;;;21.23;5.67;;;;;;;;;;5014353;28;20175;-72
2022/05/15 00:15:36;;;;;;;18.70;5.73;;;;;;;;;;5014907;28;20179;-72
2022/05/15 00:18:01;;;;;;;19.90;5.57;;;;;;;;;;5015624;28;20277;-72
2022/05/15 00:20:27;;;;;;;19.80;6.30;;;;;;;;;;5013872;28;20278;-72
2022/05/15 00:22:52;;;;;;;24.00;6.10;;;;;;;;;;5017065;28;20998;-72
2022/05/15 00:25:17;;;;;;;21.53;6.53;;;;;;;;;;5026691;28;20183;-72
2022/05/15 00:27:42;;;;;;;21.77;6.07;;;;;;;;;;5010227;28;20687;-72
2022/05/15 00:30:08;;;;;;;17.77;6.07;;;;;;;;;;5013188;28;20164;-72
2022/05/15 00:32:33;;;;;;;19.20;7.03;;;;;;;;;;5012791;28;20183;-72
2022/05/15 00:34:58;;;;;;;27.57;6.93;;;;;;;;;;5015184;28;20668;-72
2022/05/15 00:37:24;;;;;;;21.50;6.47;;;;;;;;;;5012818;28;20317;-72
2022/05/15 00:39:49;;;;;;;18.33;7.10;;;;;;;;;;5014355;28;20194;-71
2022/05/15 00:42:14;;;;;;;15.80;6.27;;;;;;;;;;5011884;28;20776;-72
2022/05/15 00:44:39;;;;;;;23.10;6.63;;;;;;;;;;5009944;28;20183;-72
2022/05/15 00:47:05;;;;;;;16.97;5.50;;;;;;;;;;5012724;28;20210;-72
2022/05/15 00:49:31;;;;;;;25.67;7.03;;;;;;;;;;5012399;28;20266;-72
2022/05/15 00:51:57;;;;;;;18.20;5.60;;;;;;;;;;5014617;28;20225;-72
2022/05/15 00:54:29;;;;;;;21.27;6.07;;;;;;;;;;5015052;28;20179;-72
2022/05/15 00:57:00;;;;;;;27.40;8.17;;;;;;;;;;5009708;28;20187;-72
2022/05/15 00:59:26;;;;;;;27.23;9.17;;;;;;;;;;5013262;28;20175;-72
2022/05/15 01:01:52;;;;;;;24.70;6.77;;;;;;;;;;5006545;28;20230;-72
2022/05/15 01:04:17;;;;;;;19.87;6.47;;;;;;;;;;5007106;28;20223;-72
2022/05/15 01:06:43;;;;;;;19.20;6.70;;;;;;;;;;5013114;28;20569;-72
2022/05/15 01:09:09;;;;;;;25.47;6.37;;;;;;;;;;5026176;28;20708;-72
2022/05/15 01:11:34;;;;;;;22.67;6.10;;;;;;;;;;5015121;28;20207;-72
2022/05/15 01:14:02;;;;;;;18.70;6.07;;;;;;;;;;5012372;28;20186;-72
2022/05/15 01:16:27;;;;;;;24.60;6.73;;;;;;;;;;5018889;28;20558;-72
2022/05/15 01:18:59;;;;;;;21.17;6.63;;;;;;;;;;5012029;28;20198;-72
2022/05/15 01:21:24;;;;;;;25.53;6.33;;;;;;;;;;5013640;28;20242;-72
2022/05/15 01:23:50;;;;;;;26.37;7.53;;;;;;;;;;5015778;28;20199;-72
2022/05/15 01:26:16;;;;;;;18.43;6.20;;;;;;;;;;5014917;28;20179;-72
2022/05/15 01:28:41;;;;;;;24.47;7.10;;;;;;;;;;5013036;28;20187;-74
2022/05/15 01:31:06;;;;;;;23.33;6.90;;;;;;;;;;5015873;28;20241;-72
2022/05/15 01:33:31;;;;;;;28.60;6.63;;;;;;;;;;5012207;28;20179;-72
2022/05/15 01:35:57;;;;;;;18.23;6.90;;;;;;;;;;5029487;28;20202;-72
2022/05/15 01:38:22;;;;;;;23.33;8.27;;;;;;;;;;5011685;28;20241;-72
2022/05/15 01:40:50;;;;;;;18.73;5.97;;;;;;;;;;5011630;28;20264;-72
2022/05/15 01:43:15;;;;;;;19.23;6.10;;;;;;;;;;5012651;28;20221;-72
2022/05/15 01:45:41;;;;;;;20.43;6.60;;;;;;;;;;5014440;28;20179;-72
2022/05/15 01:48:06;;;;;;;21.30;7.00;;;;;;;;;;5013156;28;20207;-72
2022/05/15 01:50:31;;;;;;;17.83;5.83;;;;;;;;;;5018207;28;20241;-72
2022/05/15 01:52:56;;;;;;;22.27;6.93;;;;;;;;;;5011059;28;20172;-72
2022/05/15 01:55:21;;;;;;;19.33;5.80;;;;;;;;;;5014489;28;20212;-72
2022/05/15 01:57:47;;;;;;;19.00;6.53;;;;;;;;;;5013945;28;20174;-72
2022/05/15 02:00:14;;;;;;;22.27;5.57;;;;;;;;;;5014559;28;20218;-74
2022/05/15 02:02:40;;;;;;;19.33;7.17;;;;;;;;;;5013026;28;20728;-72
2022/05/15 02:05:06;;;;;;;22.33;6.30;;;;;;;;;;5032491;28;20302;-72
2022/05/15 02:07:31;;;;;;;23.83;6.73;;;;;;;;;;5010498;28;20229;-72
2022/05/15 02:09:56;;;;;;;19.20;6.93;;;;;;;;;;5011198;28;21101;-72
2022/05/15 02:12:21;;;;;;;20.83;6.50;;;;;;;;;;5009878;28;20617;-72
2022/05/15 02:14:47;;;;;;;20.83;7.13;;;;;;;;;;5011427;28;20183;-72
2022/05/15 02:17:12;;;;;;;20.70;6.03;;;;;;;;;;5011233;28;20186;-72
2022/05/15 02:19:37;;;;;;;19.70;6.17;;;;;;;;;;5011137;28;20183;-72
2022/05/15 02:22:02;;;;;;;19.87;6.00;;;;;;;;;;5014046;28;20199;-72
2022/05/15 02:24:27;;;;;;;18.90;5.40;;;;;;;;;;5011219;28;20171;-72
2022/05/15 02:26:53;;;;;;;22.67;6.47;;;;;;;;;;5028848;28;20301;-72
2022/05/15 02:29:18;;;;;;;14.43;4.87;;;;;;;;;;5024751;28;20652;-72
2022/05/15 02:31:43;;;;;;;16.90;5.53;;;;;;;;;;5013634;28;20202;-72
2022/05/15 02:34:08;;;;;;;15.40;5.90;;;;;;;;;;5015441;28;20619;-72
2022/05/15 02:36:34;;;;;;;19.73;6.47;;;;;;;;;;5011231;28;20205;-72
2022/05/15 02:38:59;;;;;;;14.87;5.43;;;;;;;;;;5015080;28;20186;-72
2022/05/15 02:41:24;;;;;;;25.83;7.13;;;;;;;;;;5009737;28;20272;-72
2022/05/15 02:43:50;;;;;;;24.13;7.30;;;;;;;;;;5013170;28;20179;-72
2022/05/15 02:46:15;;;;;;;22.07;5.43;;;;;;;;;;5011188;28;20791;-72
2022/05/15 02:51:24;;;;;;;24.80;6.80;;;;;;;;;;5011332;28;20245;-72
2022/05/15 02:53:49;;;;;;;16.80;7.50;;;;;;;;;;5015537;28;20186;-72
2022/05/15 02:56:20;;;;;;;28.03;7.63;;;;;;;;;;5026546;28;20190;-72
2022/05/15 02:58:45;;;;;;;24.23;7.53;;;;;;;;;;5013945;28;20274;-72
2022/05/15 03:01:10;;;;;;;20.47;6.10;;;;;;;;;;5011026;28;20266;-73
2022/05/15 03:03:35;;;;;;;20.33;6.47;;;;;;;;;;5000881;28;20263;-72
2022/05/15 03:06:02;;;;;;;22.83;7.00;;;;;;;;;;5009792;28;20197;-73
2022/05/15 03:08:27;;;;;;;22.43;7.17;;;;;;;;;;5020535;28;20546;-72
2022/05/15 03:10:52;;;;;;;22.07;7.00;;;;;;;;;;5003523;28;20653;-72
2022/05/15 03:13:17;;;;;;;24.40;8.20;;;;;;;;;;5008785;28;20177;-72
2022/05/15 03:15:43;;;;;;;18.63;6.20;;;;;;;;;;5012706;28;20190;-72
2022/05/15 03:18:08;;;;;;;15.23;6.37;;;;;;;;;;5012766;28;20709;-72
2022/05/15 03:20:34;;;;;;;25.90;7.43;;;;;;;;;;5020303;28;20257;-72
2022/05/15 03:23:00;;;;;;;23.80;6.30;;;;;;;;;;5012577;28;20532;-72
2022/05/15 03:25:27;;;;;;;24.93;6.73;;;;;;;;;;5011034;28;20209;-72
2022/05/15 03:27:53;;;;;;;22.93;7.30;;;;;;;;;;5011681;28;20202;-72
2022/05/15 03:30:18;;;;;;;22.13;6.27;;;;;;;;;;5016781;28;20225;-72
2022/05/15 03:32:44;;;;;;;20.47;6.13;;;;;;;;;;5000895;28;20171;-73
2022/05/15 03:35:09;;;;;;;19.57;6.30;;;;;;;;;;5010850;28;20198;-73
2022/05/15 03:37:35;;;;;;;21.07;7.60;;;;;;;;;;5007207;28;20293;-70
2022/05/15 03:40:00;;;;;;;18.23;6.83;;;;;;;;;;5011371;28;20186;-73
2022/05/15 03:42:26;;;;;;;24.07;6.83;;;;;;;;;;5009617;28;20239;-72
2022/05/15 03:44:52;;;;;;;20.33;6.67;;;;;;;;;;5011259;28;20175;-73
2022/05/15 03:47:17;;;;;;;17.80;7.47;;;;;;;;;;5017644;28;20206;-73
2022/05/15 03:49:42;;;;;;;19.57;7.43;;;;;;;;;;5011445;28;20305;-71
2022/05/15 03:52:08;;;;;;;18.87;6.23;;;;;;;;;;5013925;28;20205;-71
2022/05/15 03:54:33;;;;;;;18.70;6.33;;;;;;;;;;5011292;28;20187;-71
2022/05/15 03:56:58;;;;;;;18.90;6.70;;;;;;;;;;5018832;28;20178;-71
2022/05/15 03:59:28;;;;;;;15.13;6.07;;;;;;;;;;5011789;28;20292;-71
2022/05/15 04:01:53;;;;;;;18.07;5.60;;;;;;;;;;5007660;28;20203;-71
2022/05/15 04:04:19;;;;;;;21.67;6.57;;;;;;;;;;5010321;28;20186;-74
2022/05/15 04:06:44;;;;;;;14.73;5.60;;;;;;;;;;5009200;28;20198;-72
2022/05/15 04:09:09;;;;;;;18.87;5.83;;;;;;;;;;5007393;28;20177;-71
2022/05/15 04:11:35;;;;;;;20.97;6.20;;;;;;;;;;5012518;28;20218;-72
2022/05/15 04:14:00;;;;;;;19.83;6.77;;;;;;;;;;5011252;28;20255;-72
2022/05/15 04:16:25;;;;;;;25.87;7.27;;;;;;;;;;5011447;28;20179;-72
2022/05/15 04:18:50;;;;;;;27.30;8.63;;;;;;;;;;5015491;28;20175;-72
2022/05/15 04:21:16;;;;;;;19.27;6.27;;;;;;;;;;5014303;28;20202;-72
2022/05/15 04:23:41;;;;;;;17.73;5.80;;;;;;;;;;5013523;28;20645;-72
2022/05/15 04:26:06;;;;;;;17.63;6.40;;;;;;;;;;5009864;28;20179;-72
2022/05/15 04:28:32;;;;;;;16.37;5.57;;;;;;;;;;5008524;28;20613;-72
2022/05/15 04:30:57;;;;;;;18.00;5.67;;;;;;;;;;5014157;28;20198;-72
2022/05/15 04:33:22;;;;;;;14.80;5.57;;;;;;;;;;5017486;28;20182;-72
2022/05/15 04:35:47;;;;;;;15.67;5.23;;;;;;;;;;5017858;28;20325;-72
2022/05/15 04:38:12;;;;;;;15.97;5.53;;;;;;;;;;5018038;28;20197;-72
2022/05/15 04:40:37;;;;;;;18.13;5.43;;;;;;;;;;5013489;28;20206;-72
2022/05/15 04:43:03;;;;;;;18.83;5.33;;;;;;;;;;5018714;28;20186;-72
2022/05/15 04:45:28;;;;;;;14.27;5.67;;;;;;;;;;5014497;28;20210;-72
2022/05/15 04:47:54;;;;;;;13.83;5.50;;;;;;;;;;5019791;28;20300;-72
2022/05/15 04:50:19;;;;;;;17.63;5.80;;;;;;;;;;5014961;28;20209;-72
2022/05/15 04:52:45;;;;;;;24.70;6.30;;;;;;;;;;5015132;28;20198;-71
2022/05/15 04:55:10;;;;;;;14.33;5.57;;;;;;;;;;5010180;28;20722;-72
2022/05/15 04:57:36;;;;;;;14.30;5.10;;;;;;;;;;5013664;28;20190;-72
2022/05/15 05:00:02;;;;;;;21.17;6.10;;;;;;;;;;5013172;28;20557;-72
2022/05/15 05:02:27;;;;;;;15.13;5.57;;;;;;;;;;5017403;28;20184;-72
2022/05/15 05:04:53;;;;;;;19.77;6.40;;;;;;;;;;5013483;28;20273;-72
2022/05/15 05:07:18;;;;;;;17.87;5.63;;;;;;;;;;5017552;28;20240;-72
2022/05/15 05:09:43;;;;;;;16.33;5.20;;;;;;;;;;5017384;28;20175;-72
2022/05/15 05:12:08;;;;;;;19.27;5.90;;;;;;;;;;5015432;28;20209;-72
2022/05/15 05:14:34;;;;;;;20.92;5.50;;;;;;;;;;5012739;28;20237;-72
2022/05/15 05:16:59;;;;;;;15.00;5.47;;;;;;;;;;5013989;28;20178;-72
2022/05/15 05:19:24;;;;;;;14.60;5.65;;;;;;;;;;5011717;28;20179;-72
2022/05/15 05:21:49;;;;;;;15.50;5.45;;;;;;;;;;5017001;28;20230;-72
2022/05/15 05:24:14;;;;;;;15.98;5.57;;;;;;;;;;5012242;28;20215;-72
2022/05/15 05:26:40;;;;;;;15.03;5.27;;;;;;;;;;5014872;28;20276;-72
2022/05/15 05:29:05;;;;;;;13.60;5.57;;;;;;;;;;5015835;28;20455;-72
2022/05/15 05:31:30;;;;;;;18.45;5.53;;;;;;;;;;5016550;28;20187;-72
2022/05/15 05:33:56;;;;;;;16.80;6.43;;;;;;;;;;5012101;28;20262;-72
2022/05/15 05:36:21;;;;;;;17.17;5.95;;;;;;;;;;5016348;28;20179;-72
2022/05/15 05:38:47;;;;;;;20.25;5.40;;;;;;;;;;5017426;28;20702;-72
2022/05/15 05:41:12;;;;;;;12.55;5.65;;;;;;;;;;5012962;28;20215;-72
2022/05/15 05:43:37;;;;;;;13.73;5.00;;;;;;;;;;5014032;28;20249;-72
2022/05/15 05:46:02;;;;;;;13.98;5.63;;;;;;;;;;5012611;28;20175;-72
2022/05/15 05:48:28;;;;;;;15.05;5.70;;;;;;;;;;5015679;28;20209;-72
2022/05/15 05:50:53;;;;;;;22.52;5.90;;;;;;;;;;5017078;28;20237;-72
2022/05/15 05:53:18;;;;;;;16.50;5.72;;;;;;;;;;5018117;28;20170;-72
2022/05/15 05:55:43;;;;;;;15.20;4.87;;;;;;;;;;5015075;28;20191;-72
2022/05/15 05:58:08;;;;;;;15.77;5.57;;;;;;;;;;5016323;28;20436;-72
2022/05/15 06:00:35;;;;;;;15.65;5.10;;;;;;;;;;5011957;28;20737;-72
2022/05/15 06:05:45;;;;;;;14.63;5.10;;;;;;;;;;5018139;28;20560;-72
2022/05/15 06:08:10;;;;;;;19.15;5.70;;;;;;;;;;5010576;28;20198;-72
2022/05/15 06:10:35;;;;;;;16.75;5.85;;;;;;;;;;5010577;28;20227;-71
2022/05/15 06:13:01;;;;;;;16.70;6.28;;;;;;;;;;5010402;28;20648;-72
2022/05/15 06:15:26;;;;;;;16.77;6.67;;;;;;;;;;5014341;28;20228;-72
2022/05/15 06:17:51;;;;;;;20.42;6.35;;;;;;;;;;5010596;28;20445;-72
2022/05/15 06:20:16;;;;;;;17.07;6.30;;;;;;;;;;5012250;28;20210;-72
2022/05/15 06:22:42;;;;;;;14.37;5.30;;;;;;;;;;5013185;28;20436;-72
2022/05/15 06:25:07;;;;;;;19.35;6.53;;;;;;;;;;5013765;28;20455;-72
2022/05/15 06:27:33;;;;;;;14.00;5.68;;;;;;;;;;5013093;28;20261;-72
2022/05/15 06:29:58;;;;;;;16.20;5.63;;;;;;;;;;5030367;28;20190;-72
2022/05/15 06:32:25;;;;;;;14.85;4.90;;;;;;;;;;5014558;28;20198;-72
2022/05/15 06:34:50;;;;;;;11.55;5.68;;;;;;;;;;5015327;28;20278;-72
2022/05/15 06:37:15;;;;;;;16.67;5.63;;;;;;;;;;5014813;28;20642;-72
2022/05/15 06:39:40;;;;;;;15.27;6.00;;;;;;;;;;5026754;28;20179;-72
2022/05/15 06:42:05;;;;;;;15.80;5.53;;;;;;;;;;5010363;28;20820;-72
2022/05/15 06:44:31;;;;;;;14.02;6.03;;;;;;;;;;5011278;28;20673;-72
2022/05/15 06:46:56;;;;;;;15.83;6.03;;;;;;;;;;5013758;28;20203;-72
2022/05/15 06:49:22;;;;;;;15.60;6.20;;;;;;;;;;5009542;28;20515;-72
2022/05/15 06:51:47;;;;;;;17.33;5.95;;;;;;;;;;5012965;28;20254;-72
2022/05/15 06:54:12;;;;;;;17.08;5.60;;;;;;;;;;5012340;28;20217;-72
2022/05/15 06:59:21;;;;;;;19.30;5.75;;;;;;;;;;5013451;28;20443;-72
2022/05/15 07:01:47;;;;;;;15.30;6.45;;;;;;;;;;5006508;28;20215;-72
2022/05/15 07:04:12;;;;;;;17.42;6.00;;;;;;;;;;4996749;28;20717;-72
2022/05/15 07:06:37;;;;;;;15.45;5.85;;;;;;;;;;5012302;28;20495;-72
2022/05/15 07:09:02;;;;;;;13.60;6.28;;;;;;;;;;5009371;28;20186;-72
2022/05/15 07:11:28;;;;;;;16.38;5.68;;;;;;;;;;5010538;28;20205;-72
2022/05/15 07:13:53;;;;;;;18.83;5.97;;;;;;;;;;5009533;28;20170;-72
2022/05/15 07:16:19;;;;;;;14.10;5.47;;;;;;;;;;5012269;28;20167;-72
2022/05/15 07:18:44;;;;;;;11.77;5.33;;;;;;;;;;5014752;28;20432;-72
2022/05/15 07:21:09;;;;;;;12.73;5.45;;;;;;;;;;5018519;28;20463;-72
2022/05/15 07:23:35;;;;;;;21.10;6.97;;;;;;;;;;5013265;28;20214;-72
2022/05/15 07:26:00;;;;;;;14.20;6.28;;;;;;;;;;5015118;28;20178;-72
2022/05/15 07:28:25;;;;;;;17.92;5.45;;;;;;;;;;5031024;28;20697;-72
2022/05/15 07:30:51;;;;;;;17.40;5.93;;;;;;;;;;5018545;28;20202;-72
2022/05/15 07:33:19;;;;;;;14.85;5.90;;;;;;;;;;5006371;28;20396;-72
2022/05/15 07:35:45;;;;;;;14.93;6.15;;;;;;;;;;5005097;28;20175;-72
2022/05/15 07:38:10;;;;;;;19.85;6.22;;;;;;;;;;5009563;28;20179;-72
2022/05/15 07:40:35;;;;;;;16.45;6.38;;;;;;;;;;5010510;28;20651;-72
2022/05/15 07:43:04;;;;;;;17.13;6.10;;;;;;;;;;5010027;28;20182;-72
2022/05/15 07:45:29;;;;;;;15.52;5.60;;;;;;;;;;5009688;28;20183;-72
2022/05/15 07:47:54;;;;;;;20.60;6.23;;;;;;;;;;5009615;28;20199;-72
2022/05/15 07:50:19;;;;;;;11.67;6.30;;;;;;;;;;5008887;28;20915;-72
2022/05/15 07:52:44;;;;;;;11.73;5.90;;;;;;;;;;5016300;28;20442;-72
2022/05/15 07:55:10;;;;;;;17.20;6.27;;;;;;;;;;5015074;28;20269;-72
2022/05/15 07:57:35;;;;;;;19.73;6.22;;;;;;;;;;5012578;28;20446;-72
2022/05/15 08:00:03;;;;;;;13.17;5.37;;;;;;;;;;5016206;28;20189;-72
2022/05/15 08:02:28;;;;;;;15.75;6.32;;;;;;;;;;5026928;28;20459;-72
2022/05/15 08:10:21;;;;;;;13.88;5.28;;;;;;;;;;5017008;28;21095;-70
2022/05/15 08:12:46;;;;;;;14.32;6.80;;;;;;;;;;5017774;28;20182;-71
2022/05/15 08:15:11;;;;;;;15.30;6.23;;;;;;;;;;5017949;28;20208;-71
2022/05/15 08:17:37;;;;;;;13.93;5.53;;;;;;;;;;5016551;28;20435;-71
2022/05/15 08:25:30;;;;;;;15.05;5.95;;;;;;;;;;5019803;28;20289;-71
2022/05/15 08:27:55;;;;;;;13.00;5.90;;;;;;;;;;5018526;28;20221;-71
2022/05/15 08:30:20;;;;;;;14.50;5.93;;;;;;;;;;5018761;28;20458;-71
2022/05/15 08:32:46;;;;;;;16.67;6.47;;;;;;;;;;5019736;28;20187;-71
2022/05/15 08:35:11;;;;;;;12.65;5.55;;;;;;;;;;5011916;28;20201;-71
2022/05/15 08:37:37;;;;;;;9.52;6.18;;;;;;;;;;4996890;28;20175;-71
2022/05/15 08:40:02;;;;;;;13.95;6.57;;;;;;;;;;5002771;28;20270;-71
2022/05/15 08:42:33;;;;;;;13.70;5.43;;;;;;;;;;4991144;28;20669;-71
2022/05/15 08:45:00;;;;;;;13.27;6.32;;;;;;;;;;5001302;28;20175;-70
2022/05/15 08:47:42;;;;;;;12.75;6.00;;;;;;;;;;5005012;28;20221;-71
2022/05/15 08:50:09;;;;;;;14.13;6.10;;;;;;;;;;5015973;28;20182;-70
2022/05/15 08:52:37;;;;;;;13.50;6.68;;;;;;;;;;4996651;28;20564;-71
2022/05/15 08:55:04;;;;;;;13.27;5.50;;;;;;;;;;5007263;28;20229;-70
2022/05/15 08:57:34;;;;;;;13.85;5.95;;;;;;;;;;4994191;28;20187;-72
2022/05/15 09:00:00;;;;;;;14.77;6.22;;;;;;;;;;5006157;28;20183;-71
2022/05/15 09:02:25;;;;;;;13.02;5.97;;;;;;;;;;5007566;28;20186;-71
2022/05/15 09:04:51;;;;;;;14.23;6.97;;;;;;;;;;5033773;28;20174;-72
2022/05/15 09:07:19;;;;;;;13.88;6.15;;;;;;;;;;5013843;28;20319;-71
2022/05/15 09:09:47;;;;;;;10.25;5.75;;;;;;;;;;5004790;28;20186;-71
2022/05/15 09:12:20;;;;;;;12.40;6.13;;;;;;;;;;5000511;28;20207;-70
2022/05/15 09:15:01;;;;;;;13.10;6.63;;;;;;;;;;5001514;28;20184;-71
2022/05/15 09:17:30;;;;;;;15.52;6.75;;;;;;;;;;5005019;28;20649;-71
2022/05/15 09:20:00;;;;;;;15.93;6.85;;;;;;;;;;5009838;28;20183;-72
2022/05/15 09:22:27;;;;;;;13.68;6.15;;;;;;;;;;5011948;28;20183;-71
2022/05/15 09:24:53;;;;;;;13.57;6.43;;;;;;;;;;5013089;28;20187;-71
2022/05/15 09:27:22;;;;;;;12.32;6.18;;;;;;;;;;5011781;28;20202;-71
2022/05/15 09:29:57;;;;;;;12.98;5.63;;;;;;;;;;5012895;28;20593;-71
2022/05/15 09:32:27;;;;;;;11.35;5.85;;;;;;;;;;5010520;28;20530;-71
2022/05/15 09:34:54;;;;;;;10.05;5.97;;;;;;;;;;5018784;28;20269;-71
2022/05/15 09:40:37;;;;;;;13.00;5.38;;;;;;;;;;5008661;28;20213;-71
2022/05/15 09:45:51;;;;;;;13.68;5.45;;;;;;;;;;5016506;28;20218;-71
2022/05/15 09:48:20;;;;;;;10.38;5.03;;;;;;;;;;5013075;28;20209;-71
2022/05/15 09:50:48;;;;;;;13.70;4.88;;;;;;;;;;5015633;28;20260;-71
2022/05/15 09:53:21;;;;;;;9.85;4.47;;;;;;;;;;5016553;28;20245;-71
2022/05/15 09:56:04;;;;;;;12.23;4.15;;;;;;;;;;5015653;28;20308;-71
2022/05/15 09:58:39;;;;;;;9.85;3.97;;;;;;;;;;5008978;28;20190;-71
2022/05/15 10:01:22;;;;;;;9.73;3.92;;;;;;;;;;5014036;28;20202;-71
2022/05/15 10:03:52;;;;;;;12.82;3.97;;;;;;;;;;5017048;28;21491;-71
2022/05/15 10:06:19;;;;;;;12.68;4.80;;;;;;;;;;5015018;28;20178;-71
2022/05/15 10:08:45;;;;;;;9.82;4.25;;;;;;;;;;5004983;28;20301;-71
2022/05/15 10:11:14;;;;;;;10.40;4.13;;;;;;;;;;5011905;28;20294;-71
2022/05/15 10:13:47;;;;;;;10.98;3.72;;;;;;;;;;5012482;28;20270;-72
2022/05/15 10:16:18;;;;;;;9.15;3.45;;;;;;;;;;4995231;28;20622;-71
2022/05/15 10:19:02;;;;;;;9.63;4.45;;;;;;;;;;5001932;28;20193;-71
2022/05/15 10:21:31;;;;;;;10.43;4.00;;;;;;;;;;5000356;28;20195;-71
2022/05/15 10:23:59;;;;;;;10.15;4.03;;;;;;;;;;5000180;28;20733;-71
2022/05/15 10:26:31;;;;;;;9.30;4.05;;;;;;;;;;5002240;28;20563;-71
2022/05/15 10:29:06;;;;;;;10.10;4.05;;;;;;;;;;5005942;28;20175;-71
2022/05/15 10:31:50;;;;;;;8.02;4.00;;;;;;;;;;5002060;28;20202;-71
2022/05/15 10:34:21;;;;;;;14.38;5.50;;;;;;;;;;5001092;28;20186;-71
2022/05/15 10:36:50;;;;;;;11.45;4.35;;;;;;;;;;5017363;28;20186;-71
2022/05/15 10:39:15;;;;;;;9.48;3.65;;;;;;;;;;5002331;28;20179;-71
2022/05/15 10:41:59;;;;;;;9.38;4.10;;;;;;;;;;5001599;28;20632;-71
2022/05/15 10:44:36;;;;;;;10.07;4.00;;;;;;;;;;4998029;28;20174;-71
2022/05/15 10:47:06;;;;;;;6.55;3.55;;;;;;;;;;5012603;28;20209;-71
2022/05/15 10:49:42;;;;;;;11.27;3.95;;;;;;;;;;5003594;28;20200;-71
2022/05/15 10:52:20;;;;;;;8.57;3.25;;;;;;;;;;5007435;28;20646;-71
2022/05/15 10:57:48;;;;;;;11.45;3.90;;;;;;;;;;5001045;28;20189;-71
2022/05/15 11:00:38;;;;;;;9.93;3.87;;;;;;;;;;5000121;28;20198;-70
2022/05/15 11:03:06;;;;;;;9.95;3.63;;;;;;;;;;4999700;28;20515;-71
2022/05/15 11:05:32;;;;;;;11.02;3.90;;;;;;;;;;4999967;28;20186;-70
2022/05/15 11:08:07;;;;;;;7.03;3.00;;;;;;;;;;5001648;28;20237;-71
2022/05/15 11:10:36;;;;;;;10.27;4.03;;;;;;;;;;5001168;28;20201;-71
2022/05/15 11:13:33;;;;;;;7.80;2.58;;;;;;;;;;5001750;28;20179;-71
2022/05/15 11:16:05;;;;;;;8.85;3.15;;;;;;;;;;4959280;28;20195;-71
2022/05/15 11:18:36;;;;;;;8.85;3.10;;;;;;;;;;4999395;28;20244;-71
2022/05/15 11:21:05;;;;;;;10.63;3.30;;;;;;;;;;5002202;28;20280;-71
2022/05/15 11:23:31;;;;;;;11.23;3.30;;;;;;;;;;5001796;28;20257;-71
2022/05/15 11:25:59;;;;;;;6.57;2.53;;;;;;;;;;5001974;28;20186;-71
2022/05/15 11:28:29;;;;;;;9.40;3.08;;;;;;;;;;5001029;28;20211;-71
2022/05/15 11:31:05;;;;;;;8.32;2.92;;;;;;;;;;5003020;28;20195;-72
2022/05/15 11:33:50;;;;;;;8.43;2.88;;;;;;;;;;5000720;28;20187;-71
2022/05/15 11:36:21;;;;;;;7.25;2.67;;;;;;;;;;4990327;28;20194;-71
2022/05/15 11:38:52;;;;;;;8.25;2.75;;;;;;;;;;5002628;28;20245;-72
2022/05/15 11:41:36;;;;;;;15.15;3.10;;;;;;;;;;4999413;28;20256;-70
2022/05/15 11:44:13;;;;;;;8.70;3.10;;;;;;;;;;5001801;28;20189;-70
2022/05/15 11:46:56;;;;;;;8.73;2.95;;;;;;;;;;4998517;28;20261;-71
2022/05/15 11:49:34;;;;;;;6.18;2.40;;;;;;;;;;5000978;28;20540;-71
2022/05/15 11:52:06;;;;;;;7.22;2.50;;;;;;;;;;4998174;28;20723;-71
2022/05/15 11:54:41;;;;;;;6.97;2.05;;;;;;;;;;5001447;28;20182;-71
2022/05/15 11:57:08;;;;;;;5.25;1.73;;;;;;;;;;5003741;28;20261;-71
2022/05/15 11:59:34;;;;;;;7.45;2.03;;;;;;;;;;5001193;28;20190;-71
2022/05/15 12:02:01;;;;;;;8.00;2.50;;;;;;;;;;5000493;28;20226;-71
2022/05/15 12:04:36;;;;;;;7.25;2.35;;;;;;;;;;5001852;28;20282;-71
2022/05/15 12:07:01;;;;;;;6.85;2.08;;;;;;;;;;4997571;28;20217;-72
2022/05/15 12:09:46;;;;;;;6.50;2.10;;;;;;;;;;5002067;28;20186;-71
2022/05/15 12:12:22;;;;;;;8.13;2.28;;;;;;;;;;4994832;28;22524;-71
2022/05/15 12:15:09;;;;;;;9.13;2.47;;;;;;;;;;4997860;28;20248;-71
2022/05/15 12:17:37;;;;;;;6.40;2.58;;;;;;;;;;5013235;28;20197;-71
2022/05/15 12:20:13;;;;;;;7.60;2.88;;;;;;;;;;5004595;28;20200;-70
2022/05/15 12:22:43;;;;;;;6.93;2.05;;;;;;;;;;5003816;28;20225;-70
2022/05/15 12:25:12;;;;;;;4.95;1.67;;;;;;;;;;5000590;28;20190;-70
2022/05/15 12:27:52;;;;;;;8.75;2.15;;;;;;;;;;4998363;28;20198;-71
2022/05/15 12:30:19;;;;;;;8.05;2.47;;;;;;;;;;5003367;28;20210;-70
2022/05/15 12:33:05;;;;;;;5.57;2.20;;;;;;;;;;4999164;28;20833;-70
2022/05/15 12:35:30;;;;;;;9.30;3.72;;;;;;;;;;5000650;28;20503;-71
2022/05/15 12:38:02;;;;;;;5.60;2.00;;;;;;;;;;5000416;28;20190;-70
2022/05/15 12:40:30;;;;;;;6.53;2.60;;;;;;;;;;4999348;28;20211;-70
2022/05/15 12:42:56;;;;;;;7.18;2.50;;;;;;;;;;5000384;28;21833;-71
2022/05/15 12:45:22;;;;;;;5.63;2.20;;;;;;;;;;4999677;28;20195;-71
2022/05/15 12:47:57;;;;;;;5.00;2.17;;;;;;;;;;4999295;28;20212;-71
2022/05/15 12:50:23;;;;;;;6.97;2.55;;;;;;;;;;5000877;28;20209;-70
2022/05/15 12:52:55;;;;;;;5.87;2.20;;;;;;;;;;4999960;28;20190;-70
2022/05/15 12:55:23;;;;;;;3.10;2.22;;;;;;;;;;5002859;28;20623;-73
2022/05/15 12:57:50;;;;;;;6.88;2.05;;;;;;;;;;5006099;28;20182;-71
2022/05/15 13:00:18;;;;;;;8.00;2.05;;;;;;;;;;5002815;28;20198;-71
2022/05/15 13:02:43;;;;;;;4.63;2.05;;;;;;;;;;5004110;28;20178;-70
2022/05/15 13:05:22;;;;;;;5.78;2.20;;;;;;;;;;5002590;28;20186;-70
2022/05/15 13:07:52;;;;;;;7.88;2.40;;;;;;;;;;5001964;28;20249;-71
2022/05/15 13:10:21;;;;;;;4.75;2.20;;;;;;;;;;5001501;28;20519;-71
2022/05/15 13:12:49;;;;;;;6.82;2.30;;;;;;;;;;5001628;28;20596;-71
2022/05/15 13:15:18;;;;;;;5.60;2.25;;;;;;;;;;5003779;28;20728;-71
2022/05/15 13:17:43;;;;;;;9.48;3.10;;;;;;;;;;5007497;28;20822;-71
2022/05/15 13:20:10;;;;;;;8.70;2.72;;;;;;;;;;5003232;28;20198;-71
2022/05/15 13:22:36;;;;;;;5.65;2.22;;;;;;;;;;5002195;28;20179;-70
2022/05/15 13:25:06;;;;;;;5.07;2.42;;;;;;;;;;5003960;28;20186;-70
2022/05/15 13:27:33;;;;;;;9.85;2.15;;;;;;;;;;5000669;28;20824;-70
2022/05/15 13:29:59;;;;;;;5.35;2.00;;;;;;;;;;5004743;28;20648;-71
2022/05/15 13:32:24;;;;;;;7.18;2.55;;;;;;;;;;5001645;28;20194;-71
2022/05/15 13:34:51;;;;;;;5.40;1.75;;;;;;;;;;5002769;28;20179;-71
2022/05/15 13:37:28;;;;;;;4.97;1.80;;;;;;;;;;5002425;28;20183;-71
2022/05/15 13:45:25;;;;;;;5.63;2.33;;;;;;;;;;5001848;28;20205;-70
2022/05/15 13:48:02;;;;;;;2.88;1.30;;;;;;;;;;5000805;28;20211;-71
2022/05/15 13:50:34;;;;;;;3.78;1.70;;;;;;;;;;5002709;28;20201;-71
2022/05/15 13:53:18;;;;;;;7.10;2.13;;;;;;;;;;5008847;28;20314;-71
2022/05/15 13:55:43;;;;;;;4.72;1.88;;;;;;;;;;5001144;28;20687;-71
2022/05/15 13:58:08;;;;;;;6.35;2.15;;;;;;;;;;5000176;28;20199;-71
2022/05/15 14:00:35;;;;;;;5.07;1.60;;;;;;;;;;5002449;28;21222;-71
2022/05/15 14:03:01;;;;;;;6.07;1.75;;;;;;;;;;5001639;28;20190;-72
2022/05/15 14:05:28;;;;;;;5.93;1.98;;;;;;;;;;5001777;28;20197;-71
2022/05/15 14:08:07;;;;;;;6.25;2.05;;;;;;;;;;5002715;28;20237;-71
2022/05/15 14:10:33;;;;;;;5.50;1.75;;;;;;;;;;5001162;28;20701;-71
2022/05/15 14:13:00;;;;;;;6.78;2.10;;;;;;;;;;5005529;28;20190;-72
2022/05/15 14:15:41;;;;;;;2.90;1.40;;;;;;;;;;5014986;28;20183;-71
2022/05/15 14:18:26;;;;;;;6.05;2.10;;;;;;;;;;5002774;28;20456;-70
2022/05/15 14:20:53;;;;;;;5.28;2.00;;;;;;;;;;5001342;28;20232;-70
2022/05/15 14:23:23;;;;;;;6.03;1.70;;;;;;;;;;5000382;28;20186;-70
2022/05/15 14:25:49;;;;;;;5.57;1.65;;;;;;;;;;5003343;28;20226;-70
2022/05/15 14:28:14;;;;;;;6.10;1.90;;;;;;;;;;5000744;28;20343;-71
2022/05/15 14:30:41;;;;;;;4.87;1.73;;;;;;;;;;5005179;28;20194;-71
2022/05/15 14:33:07;;;;;;;6.32;1.80;;;;;;;;;;5001439;28;20429;-70
2022/05/15 14:35:40;;;;;;;7.18;1.98;;;;;;;;;;5002045;28;20561;-70
2022/05/15 14:38:05;;;;;;;4.30;1.70;;;;;;;;;;5000340;28;21766;-71
2022/05/15 14:40:30;;;;;;;4.00;1.85;;;;;;;;;;5002898;28;20209;-71
2022/05/15 14:42:55;;;;;;;6.87;1.93;;;;;;;;;;5001268;28;20187;-70
2022/05/15 14:45:20;;;;;;;5.77;2.07;;;;;;;;;;5001878;28;20435;-71
2022/05/15 14:47:52;;;;;;;6.07;2.05;;;;;;;;;;5001327;28;20458;-71
2022/05/15 14:50:18;;;;;;;4.63;1.67;;;;;;;;;;5003279;28;20473;-71
2022/05/15 14:52:47;;;;;;;3.40;1.80;;;;;;;;;;5002825;28;20718;-71
2022/05/15 14:56:07;;;;;;;4.57;1.80;;;;;;;;;;5003434;28;20253;-71
2022/05/15 14:57:58;;;;;;;4.72;1.85;;;;;;;;;;4998568;28;20496;-71
2022/05/15 15:00:27;;;;;;;6.72;1.73;;;;;;;;;;5002198;28;20209;-71
2022/05/15 15:02:52;;;;;;;4.72;1.70;;;;;;;;;;5015254;28;20864;-71
2022/05/15 15:05:18;;;;;;;5.47;1.70;;;;;;;;;;5000433;28;20633;-71
2022/05/15 15:07:44;;;;;;;2.80;1.60;;;;;;;;;;5000887;28;20194;-71
2022/05/15 15:10:09;;;;;;;5.90;1.93;;;;;;;;;;4995831;28;20368;-71